createdAt,value
2023-01-03T00:02:16.747Z,100441.47
2023-01-03T00:04:49.674Z,100435.69
2023-01-03T00:07:34.379Z,100441.13
2023-01-03T00:10:11.228Z,100442.72
2023-01-03T00:12:40.836Z,100450.25
2023-01-03T00:15:10.741Z,100429.44
2023-01-03T00:17:38.507Z,100434.00
2023-01-03T00:20:10.786Z,100429.34
2023-01-03T00:22:40.503Z,100437.81
2023-01-03T00:25:10.466Z,100442.22
2023-01-03T00:27:40.143Z,100451.44
2023-01-03T00:30:11.781Z,100462.63
2023-01-03T00:32:41.474Z,100456.38
2023-01-03T00:35:11.164Z,100463.03
2023-01-03T00:37:40.663Z,100469.72
2023-01-03T00:40:11.380Z,100473.03
2023-01-03T00:42:59.596Z,100476.66
2023-01-03T00:45:33.644Z,100469.09
2023-01-03T00:48:05.060Z,100470.25
2023-01-03T00:50:38.974Z,100473.41
2023-01-03T00:53:08.479Z,100478.25
2023-01-03T00:55:38.012Z,100476.88
2023-01-03T00:58:07.731Z,100474.88
2023-01-03T01:00:37.279Z,100473.50
2023-01-03T01:03:07.296Z,100473.03
2023-01-03T01:05:36.839Z,100475.94
2023-01-03T01:08:06.453Z,100473.84
2023-01-03T01:10:36.023Z,100475.25
2023-01-03T01:13:03.789Z,100474.88
2023-01-03T01:15:35.211Z,100481.88
2023-01-03T01:18:04.771Z,100479.06
2023-01-03T01:20:34.276Z,100479.91
2023-01-03T01:23:04.189Z,100483.97
2023-01-03T01:25:35.265Z,100479.91
2023-01-03T01:28:04.895Z,100479.16
2023-01-03T01:30:34.398Z,100481.56
2023-01-03T01:33:04.413Z,100478.91
2023-01-03T01:35:33.953Z,100471.91
2023-01-03T01:38:03.610Z,100478.66
2023-01-03T01:40:33.475Z,100471.75
2023-01-03T01:43:41.039Z,100480.28
2023-01-03T01:46:32.257Z,100474.06
2023-01-03T01:49:06.167Z,100478.91
2023-01-03T01:51:37.427Z,100471.41
2023-01-03T01:54:08.259Z,100479.47
2023-01-03T01:56:50.501Z,100481.03
2023-01-03T01:59:20.239Z,100481.97
2023-01-03T02:01:52.790Z,100483.84
2023-01-03T02:04:29.537Z,100488.13
2023-01-03T02:07:00.200Z,100486.63
2023-01-03T02:09:32.414Z,100488.63
2023-01-03T02:12:54.212Z,100487.06
2023-01-03T02:16:15.026Z,100486.63
2023-01-03T02:19:12.122Z,100481.03
2023-01-03T02:22:57.497Z,100491.72
2023-01-03T02:25:56.754Z,100488.88
2023-01-03T02:29:21.739Z,100493.19
2023-01-03T02:32:17.270Z,100498.38
2023-01-03T02:35:16.864Z,100497.09
2023-01-03T02:38:16.928Z,100500.72
2023-01-03T02:41:40.592Z,100496.22
2023-01-03T02:44:27.048Z,100495.88
2023-01-03T02:47:07.712Z,100488.75
2023-01-03T02:49:44.643Z,100485.38
2023-01-03T02:52:24.967Z,100487.53
2023-01-03T02:55:24.919Z,100483.66
2023-01-03T02:58:16.411Z,100481.28
2023-01-03T03:00:53.448Z,100479.03
2023-01-03T03:03:36.835Z,100480.91
2023-01-03T03:06:30.277Z,100481.13
2023-01-03T03:08:59.821Z,100486.47
2023-01-03T03:11:54.998Z,100480.72
2023-01-03T03:14:58.794Z,100485.66
2023-01-03T03:17:31.491Z,100491.41
2023-01-03T03:20:19.438Z,100495.00
2023-01-03T03:23:21.611Z,100490.44
2023-01-03T03:26:07.939Z,100491.03
2023-01-03T03:28:43.723Z,100485.34
2023-01-03T03:31:41.310Z,100495.88
2023-01-03T03:34:31.577Z,100494.00
2023-01-03T03:37:16.939Z,100492.28
2023-01-03T03:40:06.488Z,100497.81
2023-01-03T03:43:14.047Z,100495.13
2023-01-03T03:46:06.568Z,100495.72
2023-01-03T03:49:33.388Z,100501.47
2023-01-03T03:52:26.336Z,100510.47
2023-01-03T03:55:13.314Z,100505.34
2023-01-03T03:57:59.557Z,100509.84
2023-01-03T04:00:35.255Z,100503.81
2023-01-03T04:03:08.220Z,100506.84
2023-01-03T04:05:45.124Z,100503.13
2023-01-03T04:08:14.653Z,100502.44
2023-01-03T04:10:44.121Z,100511.63
2023-01-03T04:13:13.670Z,100511.53
2023-01-03T04:15:43.115Z,100518.91
2023-01-03T04:18:11.783Z,100517.94
2023-01-03T04:20:41.269Z,100516.06
2023-01-03T04:23:10.700Z,100530.63
2023-01-03T04:25:40.113Z,100520.13
2023-01-03T04:28:10.077Z,100523.28
2023-01-03T04:30:39.519Z,100528.38
2023-01-03T04:33:09.157Z,100530.31
2023-01-03T04:35:39.029Z,100535.16
2023-01-03T04:38:08.973Z,100532.25
2023-01-03T04:40:38.886Z,100525.34
2023-01-03T04:43:28.377Z,100523.03
2023-01-03T04:45:57.940Z,100531.75
2023-01-03T04:48:27.456Z,100532.34
2023-01-03T04:51:01.403Z,100537.69
2023-01-03T04:53:30.879Z,100538.28
2023-01-03T04:56:00.360Z,100541.63
2023-01-03T04:58:29.814Z,100537.81
2023-01-03T05:01:05.148Z,100534.94
2023-01-03T05:03:34.020Z,100530.63
2023-01-03T05:06:08.568Z,100529.44
2023-01-03T05:08:38.943Z,100539.91
2023-01-03T05:11:08.500Z,100534.81
2023-01-03T05:13:38.076Z,100535.72
2023-01-03T05:16:13.298Z,100544.09
2023-01-03T05:18:42.915Z,100540.38
2023-01-03T05:21:37.146Z,100544.50
2023-01-03T05:24:28.036Z,100549.66
2023-01-03T05:27:01.721Z,100566.22
2023-01-03T05:29:33.048Z,100560.09
2023-01-03T05:32:02.717Z,100560.25
2023-01-03T05:34:32.171Z,100564.66
2023-01-03T05:37:01.840Z,100561.41
2023-01-03T05:39:31.333Z,100568.47
2023-01-03T05:42:00.119Z,100568.94
2023-01-03T05:44:33.101Z,100565.69
2023-01-03T05:47:05.880Z,100573.63
2023-01-03T05:49:35.809Z,100577.22
2023-01-03T05:52:05.717Z,100583.16
2023-01-03T05:54:34.366Z,100585.13
2023-01-03T05:57:03.852Z,100586.22
2023-01-03T05:59:33.268Z,100584.81
2023-01-03T06:02:02.862Z,100575.81
2023-01-03T06:04:32.545Z,100585.03
2023-01-03T06:07:02.055Z,100582.75
2023-01-03T06:09:31.943Z,100586.81
2023-01-03T06:12:01.429Z,100583.75
2023-01-03T06:14:30.070Z,100588.44
2023-01-03T06:17:18.275Z,100594.59
2023-01-03T06:19:46.964Z,100604.34
2023-01-03T06:22:16.422Z,100610.47
2023-01-03T06:24:45.867Z,100617.97
2023-01-03T06:27:15.303Z,100626.66
2023-01-03T06:29:43.038Z,100622.78
2023-01-03T06:32:12.473Z,100629.44
2023-01-03T06:34:41.121Z,100626.84
2023-01-03T06:37:10.008Z,100623.47
2023-01-03T06:39:39.549Z,100623.91
2023-01-03T06:42:27.811Z,100627.06
2023-01-03T06:45:15.588Z,100617.06
2023-01-03T06:48:03.791Z,100631.47
2023-01-03T06:50:51.083Z,100632.47
2023-01-03T06:53:23.198Z,100633.25
2023-01-03T06:55:56.786Z,100646.22
2023-01-03T06:58:27.636Z,100651.88
2023-01-03T07:00:58.221Z,100648.41
2023-01-03T07:03:27.684Z,100652.41
2023-01-03T07:05:57.166Z,100654.34
2023-01-03T07:08:26.756Z,100667.22
2023-01-03T07:10:56.705Z,100664.69
2023-01-03T07:13:44.510Z,100668.31
2023-01-03T07:16:16.636Z,100666.81
2023-01-03T07:18:54.787Z,100671.09
2023-01-03T07:21:28.785Z,100667.22
2023-01-03T07:24:04.302Z,100675.09
2023-01-03T07:26:35.877Z,100664.13
2023-01-03T07:29:09.239Z,100674.56
2023-01-03T07:31:42.717Z,100674.22
2023-01-03T07:34:11.438Z,100679.47
2023-01-03T07:36:40.117Z,100682.84
2023-01-03T07:39:08.755Z,100680.22
2023-01-03T07:41:56.034Z,100683.06
2023-01-03T07:44:25.487Z,100684.81
2023-01-03T07:46:54.999Z,100685.34
2023-01-03T07:49:24.609Z,100684.13
2023-01-03T07:51:54.042Z,100704.25
2023-01-03T07:54:23.543Z,100701.38
2023-01-03T07:56:53.001Z,100707.50
2023-01-03T07:59:21.650Z,100715.16
2023-01-03T08:01:51.200Z,100715.75
2023-01-03T08:04:20.860Z,100709.50
2023-01-03T08:06:50.306Z,100705.38
2023-01-03T08:09:37.356Z,100707.00
2023-01-03T08:12:27.013Z,100703.22
2023-01-03T08:14:55.633Z,100700.00
2023-01-03T08:17:24.304Z,100705.56
2023-01-03T08:19:53.787Z,100714.53
2023-01-03T08:22:23.228Z,100696.19
2023-01-03T08:24:51.951Z,100709.34
2023-01-03T08:27:21.482Z,100712.84
2023-01-03T08:29:50.978Z,100728.63
2023-01-03T08:32:21.381Z,100723.38
2023-01-03T08:34:50.901Z,100729.63
2023-01-03T08:37:19.591Z,100725.31
2023-01-03T08:40:02.306Z,100727.19
2023-01-03T08:42:31.245Z,100731.91
2023-01-03T08:45:10.043Z,100729.72
2023-01-03T08:47:39.182Z,100730.06
2023-01-03T08:50:09.692Z,100726.19
2023-01-03T08:52:39.178Z,100720.53
2023-01-03T08:55:09.551Z,100722.75
2023-01-03T08:57:40.456Z,100733.75
2023-01-03T09:00:11.243Z,100730.09
2023-01-03T09:02:41.061Z,100735.44
2023-01-03T09:05:10.584Z,100743.59
2023-01-03T09:07:40.103Z,100741.38
2023-01-03T09:10:10.241Z,100742.31
2023-01-03T09:12:39.691Z,100745.91
2023-01-03T09:15:10.113Z,100743.06
2023-01-03T09:17:42.335Z,100745.78
2023-01-03T09:20:17.139Z,100747.59
2023-01-03T09:22:48.187Z,100747.63
2023-01-03T09:25:17.892Z,100742.09
2023-01-03T09:27:48.412Z,100738.00
2023-01-03T09:30:20.002Z,100738.91
2023-01-03T09:32:53.069Z,100740.97
2023-01-03T09:35:22.472Z,100740.44
2023-01-03T09:37:51.974Z,100744.94
2023-01-03T09:40:21.651Z,100743.78
2023-01-03T09:43:11.480Z,100746.34
2023-01-03T09:45:53.451Z,100742.09
2023-01-03T09:48:41.995Z,100733.53
2023-01-03T09:51:47.239Z,100731.66
2023-01-03T09:54:52.294Z,100730.72
2023-01-03T09:58:00.456Z,100733.75
2023-01-03T10:01:08.608Z,100729.09
2023-01-03T10:04:33.487Z,100730.66
2023-01-03T10:07:47.644Z,100733.41
2023-01-03T10:11:10.395Z,100733.41
2023-01-03T10:14:08.607Z,100728.41
2023-01-03T10:17:38.430Z,100720.84
2023-01-03T10:20:49.341Z,100716.00
2023-01-03T10:23:20.054Z,100715.81
2023-01-03T10:25:49.789Z,100719.81
2023-01-03T10:28:44.752Z,100724.28
2023-01-03T10:31:58.313Z,100713.31
2023-01-03T10:34:27.722Z,100717.34
2023-01-03T10:36:56.399Z,100710.91
2023-01-03T10:39:32.855Z,100706.28
2023-01-03T10:42:06.423Z,100711.34
2023-01-03T10:44:35.822Z,100711.47
2023-01-03T10:47:16.999Z,100714.47
2023-01-03T10:49:48.077Z,100704.81
2023-01-03T10:52:24.042Z,100708.84
2023-01-03T10:55:17.102Z,100703.06
2023-01-03T10:58:14.498Z,100710.09
2023-01-03T11:00:44.097Z,100710.44
2023-01-03T11:03:19.536Z,100708.69
2023-01-03T11:06:00.833Z,100698.25
2023-01-03T11:08:49.286Z,100695.88
2023-01-03T11:11:55.571Z,100707.75
2023-01-03T11:14:27.992Z,100692.03
2023-01-03T11:17:06.337Z,100697.53
2023-01-03T11:19:35.887Z,100692.22
2023-01-03T11:22:14.136Z,100690.69
2023-01-03T11:25:16.402Z,100695.81
2023-01-03T11:28:48.870Z,100698.19
2023-01-03T11:32:01.881Z,100696.50
2023-01-03T11:38:49.435Z,100685.59
2023-01-03T11:41:33.019Z,100689.91
2023-01-03T11:44:51.268Z,100688.94
2023-01-03T11:48:22.451Z,100681.16
2023-01-03T11:51:16.846Z,100681.84
2023-01-03T11:54:26.928Z,100678.28
2023-01-03T11:57:14.139Z,100679.25
2023-01-03T12:00:48.149Z,100670.03
2023-01-03T12:04:04.091Z,100680.38
2023-01-03T12:10:22.763Z,100683.00
2023-01-03T12:13:01.116Z,100681.66
2023-01-03T12:16:10.903Z,100682.09
2023-01-03T12:18:57.459Z,100678.72
2023-01-03T12:21:43.943Z,100680.91
2023-01-03T12:24:40.010Z,100686.56
2023-01-03T12:27:36.184Z,100676.84
2023-01-03T12:30:32.823Z,100670.25
2023-01-03T12:33:31.055Z,100680.69
2023-01-03T12:36:31.302Z,100681.03
2023-01-03T12:39:41.755Z,100686.50
2023-01-03T12:42:36.017Z,100684.81
2023-01-03T12:45:10.978Z,100678.81
2023-01-03T12:47:47.398Z,100677.91
2023-01-03T12:50:35.277Z,100673.16
2023-01-03T12:53:46.923Z,100671.34
2023-01-03T12:56:47.783Z,100674.31
2023-01-03T12:59:52.588Z,100669.81
2023-01-03T13:02:45.870Z,100662.41
2023-01-03T13:05:29.868Z,100659.78
2023-01-03T13:08:41.275Z,100655.22
2023-01-03T13:11:26.045Z,100664.50
2023-01-03T13:14:27.328Z,100666.53
2023-01-03T13:17:30.813Z,100672.50
2023-01-03T13:20:30.516Z,100659.28
2023-01-03T13:23:53.093Z,100663.22
2023-01-03T13:26:29.856Z,100673.28
2023-01-03T13:29:49.175Z,100681.84
2023-01-03T13:32:34.671Z,100686.16
2023-01-03T13:35:16.495Z,100687.59
2023-01-03T13:37:56.882Z,100686.47
2023-01-03T13:41:07.937Z,100679.91
2023-01-03T13:43:39.929Z,100682.34
2023-01-03T13:46:29.476Z,100677.03
2023-01-03T13:49:07.556Z,100678.91
2023-01-03T13:51:39.788Z,100685.41
2023-01-03T13:54:11.957Z,100692.09
2023-01-03T13:56:46.285Z,100696.63
2023-01-03T13:59:15.788Z,100694.00
2023-01-03T14:02:08.953Z,100700.00
2023-01-03T14:05:35.014Z,100703.47
2023-01-03T14:08:58.120Z,100708.75
2023-01-03T14:12:00.469Z,100709.53
2023-01-03T14:14:38.040Z,100695.81
2023-01-03T14:17:19.919Z,100700.59
2023-01-03T14:19:55.513Z,100685.94
2023-01-03T14:22:37.268Z,100692.09
2023-01-03T14:25:09.016Z,100696.59
2023-01-03T14:27:42.100Z,100692.66
2023-01-03T14:30:24.875Z,100693.00
2023-01-03T14:32:54.616Z,100697.72
2023-01-03T14:35:38.383Z,100699.81
2023-01-03T14:38:29.465Z,100694.06
2023-01-03T14:41:03.326Z,100702.41
2023-01-03T14:43:35.712Z,100705.50
2023-01-03T14:46:08.485Z,100708.13
2023-01-03T14:48:38.091Z,100711.84
2023-01-03T14:51:10.613Z,100720.47
2023-01-03T14:53:41.949Z,100731.56
2023-01-03T14:56:12.015Z,100721.31
2023-01-03T14:58:48.343Z,100721.91
2023-01-03T15:01:23.381Z,100720.44
2023-01-03T15:03:53.672Z,100728.16
2023-01-03T15:06:31.319Z,100725.16
2023-01-03T15:09:22.631Z,100738.34
2023-01-03T15:11:59.628Z,100740.72
2023-01-03T15:14:35.700Z,100740.13
2023-01-03T15:17:19.627Z,100738.72
2023-01-03T15:19:54.769Z,100742.06
2023-01-03T15:22:40.596Z,100737.25
2023-01-03T15:25:39.279Z,100746.94
2023-01-03T15:28:28.523Z,100751.84
2023-01-03T15:31:16.487Z,100762.41
2023-01-03T15:34:09.726Z,100760.72
2023-01-03T15:36:40.810Z,100763.41
2023-01-03T15:39:20.279Z,100762.00
2023-01-03T15:42:43.955Z,100767.47
2023-01-03T15:45:25.154Z,100766.34
2023-01-03T15:47:59.694Z,100777.34
2023-01-03T15:50:56.338Z,100787.22
2023-01-03T15:53:30.409Z,100782.41
2023-01-03T15:56:35.801Z,100788.41
2023-01-03T15:59:09.632Z,100788.50
2023-01-03T16:01:39.228Z,100789.44
2023-01-03T16:04:10.600Z,100792.44
2023-01-03T16:06:40.198Z,100796.31
2023-01-03T16:09:12.157Z,100799.53
2023-01-03T16:11:43.169Z,100801.81
2023-01-03T16:14:23.104Z,100799.09
2023-01-03T16:16:57.098Z,100804.22
2023-01-03T16:19:28.867Z,100808.06
2023-01-03T16:22:36.341Z,100808.50
2023-01-03T16:24:54.201Z,100806.63
2023-01-03T16:27:25.858Z,100817.63
2023-01-03T16:29:53.708Z,100816.69
2023-01-03T16:32:30.454Z,100820.94
2023-01-03T16:35:12.813Z,100809.94
2023-01-03T16:37:42.960Z,100820.66
2023-01-03T16:40:20.515Z,100825.78
2023-01-03T16:42:50.929Z,100818.44
2023-01-03T16:45:20.646Z,100811.13
2023-01-03T16:47:51.192Z,100817.91
2023-01-03T16:50:22.674Z,100814.13
2023-01-03T16:52:57.183Z,100819.66
2023-01-03T16:55:33.224Z,100820.06
2023-01-03T16:58:01.486Z,100816.16
2023-01-03T17:00:33.579Z,100820.13
2023-01-03T17:03:03.077Z,100816.19
2023-01-03T17:05:36.378Z,100824.97
2023-01-03T17:08:16.312Z,100825.53
2023-01-03T17:10:48.925Z,100828.25
2023-01-03T17:13:37.828Z,100832.34
2023-01-03T17:16:16.468Z,100823.13
2023-01-03T17:18:47.067Z,100836.75
2023-01-03T17:21:36.824Z,100840.69
2023-01-03T17:24:25.155Z,100848.72
2023-01-03T17:27:03.893Z,100842.78
2023-01-03T17:29:33.796Z,100851.53
2023-01-03T17:32:03.438Z,100843.31
2023-01-03T17:34:33.054Z,100848.16
2023-01-03T17:37:02.591Z,100847.22
2023-01-03T17:39:32.145Z,100850.00
2023-01-03T17:42:13.051Z,100848.41
2023-01-03T17:45:04.999Z,100849.03
2023-01-03T17:48:15.445Z,100852.44
2023-01-03T17:50:45.262Z,100855.97
2023-01-03T17:53:19.612Z,100861.19
2023-01-03T17:55:52.013Z,100863.78
2023-01-03T17:58:35.651Z,100857.56
2023-01-03T18:01:08.302Z,100872.50
2023-01-03T18:03:38.521Z,100866.31
2023-01-03T18:06:20.189Z,100874.31
2023-01-03T18:08:51.060Z,100869.00
2023-01-03T18:11:26.353Z,100869.66
2023-01-03T18:13:56.249Z,100867.97
2023-01-03T18:16:26.670Z,100865.00
2023-01-03T18:18:54.515Z,100866.25
2023-01-03T18:21:28.069Z,100869.69
2023-01-03T18:24:06.851Z,100873.00
2023-01-03T18:26:43.025Z,100868.16
2023-01-03T18:29:16.565Z,100871.13
2023-01-03T18:31:47.996Z,100868.38
2023-01-03T18:34:17.550Z,100868.03
2023-01-03T18:36:52.082Z,100869.59
2023-01-03T18:39:30.378Z,100870.44
2023-01-03T18:42:19.906Z,100873.69
2023-01-03T18:44:49.572Z,100878.56
2023-01-03T18:47:19.181Z,100878.94
2023-01-03T18:49:48.706Z,100874.31
2023-01-03T18:52:39.479Z,100877.75
2023-01-03T18:55:26.484Z,100874.22
2023-01-03T18:57:55.599Z,100873.91
2023-01-03T19:00:26.546Z,100882.06
2023-01-03T19:02:56.155Z,100888.28
2023-01-03T19:05:25.793Z,100880.94
2023-01-03T19:07:55.892Z,100872.94
2023-01-03T19:10:27.071Z,100888.69
2023-01-03T19:12:58.276Z,100883.06
2023-01-03T19:15:30.185Z,100896.34
2023-01-03T19:18:01.465Z,100891.66
2023-01-03T19:20:31.426Z,100889.03
2023-01-03T19:23:00.943Z,100889.16
2023-01-03T19:25:31.477Z,100886.75
2023-01-03T19:28:05.696Z,100889.44
2023-01-03T19:30:41.501Z,100891.75
2023-01-03T19:33:16.254Z,100881.28
2023-01-03T19:35:45.735Z,100870.03
2023-01-03T19:38:15.330Z,100874.94
2023-01-03T19:40:45.771Z,100878.94
2023-01-03T19:43:22.020Z,100880.53
2023-01-03T19:45:51.691Z,100886.00
2023-01-03T19:48:25.755Z,100887.47
2023-01-03T19:50:55.334Z,100883.00
2023-01-03T19:53:25.975Z,100885.16
2023-01-03T19:55:55.553Z,100881.34
2023-01-03T19:58:32.910Z,100883.06
2023-01-03T20:01:01.159Z,100879.94
2023-01-03T20:03:40.555Z,100882.88
2023-01-03T20:06:13.860Z,100867.03
2023-01-03T20:08:44.129Z,100879.44
2023-01-03T20:11:22.804Z,100882.97
2023-01-03T20:13:50.691Z,100887.72
2023-01-03T20:16:18.505Z,100882.69
2023-01-03T20:18:50.084Z,100887.50
2023-01-03T20:21:29.263Z,100887.63
2023-01-03T20:24:02.183Z,100885.69
2023-01-03T20:26:34.410Z,100891.13
2023-01-03T20:29:04.110Z,100887.47
2023-01-03T20:31:33.780Z,100884.72
2023-01-03T20:34:06.688Z,100879.84
2023-01-03T20:36:53.336Z,100882.03
2023-01-03T20:39:34.688Z,100888.31
2023-01-03T20:42:07.602Z,100891.84
2023-01-03T20:44:37.261Z,100890.75
2023-01-03T20:47:06.936Z,100890.28
2023-01-03T20:49:35.029Z,100886.75
2023-01-03T20:52:02.825Z,100884.13
2023-01-03T20:54:33.371Z,100883.84
2023-01-03T20:57:02.968Z,100880.41
2023-01-03T20:59:33.591Z,100883.69
2023-01-03T21:02:03.331Z,100880.00
2023-01-03T21:04:34.434Z,100887.84
2023-01-03T21:07:11.116Z,100880.81
2023-01-03T21:09:41.312Z,100881.63
2023-01-03T21:12:10.799Z,100881.03
2023-01-03T21:14:40.324Z,100877.00
2023-01-03T21:17:11.362Z,100878.50
2023-01-03T21:19:40.856Z,100874.28
2023-01-03T21:22:20.576Z,100876.00
2023-01-03T21:24:55.701Z,100875.25
2023-01-03T21:27:27.123Z,100879.16
2023-01-03T21:29:56.665Z,100881.00
2023-01-03T21:32:26.225Z,100872.09
2023-01-03T21:34:55.715Z,100879.03
2023-01-03T21:37:25.237Z,100879.66
2023-01-03T21:39:54.849Z,100880.91
2023-01-03T21:42:42.916Z,100877.41
2023-01-03T21:45:14.684Z,100873.13
2023-01-03T21:47:44.139Z,100879.13
2023-01-03T21:50:14.422Z,100883.34
2023-01-03T21:52:44.179Z,100886.78
2023-01-03T21:55:13.697Z,100892.22
2023-01-03T21:57:43.626Z,100885.41
2023-01-03T22:00:14.251Z,100885.53
2023-01-03T22:03:04.163Z,100881.41
2023-01-03T22:05:33.858Z,100891.34
2023-01-03T22:08:04.504Z,100890.84
2023-01-03T22:10:34.497Z,100892.72
2023-01-03T22:13:11.816Z,100888.03
2023-01-03T22:15:41.228Z,100873.25
2023-01-03T22:18:13.226Z,100890.00
2023-01-03T22:20:42.664Z,100878.66
2023-01-03T22:23:12.388Z,100875.09
2023-01-03T22:25:41.781Z,100891.75
2023-01-03T22:28:11.221Z,100895.41
2023-01-03T22:30:40.823Z,100895.50
2023-01-03T22:33:10.691Z,100883.19
2023-01-03T22:35:40.154Z,100890.34
2023-01-03T22:38:09.615Z,100882.34
2023-01-03T22:40:38.524Z,100892.03
2023-01-03T22:43:07.967Z,100895.00
2023-01-03T22:45:39.546Z,100897.03
2023-01-03T22:48:09.028Z,100899.41
2023-01-03T22:50:40.936Z,100901.34
2023-01-03T22:53:10.377Z,100901.66
2023-01-03T22:55:42.976Z,100897.50
2023-01-03T22:58:16.291Z,100894.63
2023-01-03T23:00:46.832Z,100894.63
2023-01-03T23:03:16.272Z,100896.75
2023-01-03T23:05:45.794Z,100905.59
2023-01-03T23:08:15.309Z,100899.94
2023-01-03T23:10:44.861Z,100907.88
2023-01-03T23:13:13.516Z,100901.28
2023-01-03T23:15:42.942Z,100908.28
2023-01-03T23:18:11.680Z,100906.50
2023-01-03T23:20:48.065Z,100912.63
2023-01-03T23:23:16.734Z,100899.72
2023-01-03T23:25:46.259Z,100909.03
2023-01-03T23:28:14.083Z,100899.72
2023-01-03T23:30:43.570Z,100906.91
2023-01-03T23:33:12.251Z,100897.00
2023-01-03T23:35:40.827Z,100891.81
2023-01-03T23:38:09.458Z,100895.28
2023-01-03T23:40:44.110Z,100892.88
2023-01-03T23:43:13.555Z,100891.94
2023-01-03T23:45:43.061Z,100892.88
2023-01-03T23:48:12.453Z,100891.50
2023-01-03T23:50:42.032Z,100895.28
2023-01-03T23:53:10.709Z,100870.50
2023-01-03T23:55:40.187Z,100888.94
2023-01-03T23:58:08.881Z,100890.13
